.
WxDataArchive / Data Records for 2008-11-29
2008-11-28 November 2008 2008-11-30

Data Records for Saturday, 29 November 2008

Time	Temp	Chill	HIndex	Humid	Dewpt	 Wind 	HiWind	WindDir	Rain 	Barom 
-----	----	-----	------	-----	-----	------	------	-------	-----	----- 
00:00	30.6	30.6	30.6	77	24.3	0	1	248	0.00	29.932 
00:05	30.6	30.6	30.6	77	24.3	0	2	248	0.00	29.932 
00:10	30.4	30.4	30.4	77	24.1	0	2	248	0.00	29.934 
00:15	30.3	30.3	30.3	77	24.0	0	1	248	0.00	29.931 
00:20	30.1	30.1	30.1	77	23.8	0	0	---	0.00	29.930 
00:25	30.0	30.0	30.0	77	23.7	0	0	---	0.00	29.928 
00:30	29.7	29.7	29.7	78	23.7	0	0	---	0.00	29.926 
00:35	29.5	29.5	29.5	78	23.5	0	1	248	0.00	29.927 
00:40	29.4	29.4	29.4	78	23.4	0	1	248	0.00	29.929 
00:45	29.3	29.3	29.3	78	23.3	0	1	248	0.00	29.928 
00:50	29.0	29.0	29.0	79	23.3	0	0	---	0.00	29.928 
00:55	28.8	28.8	28.8	79	23.1	0	0	---	0.00	29.928 
01:00	28.7	28.7	28.7	80	23.3	0	1	248	0.00	29.928 
01:05	28.4	28.4	28.4	80	23.0	0	0	---	0.00	29.926 
01:10	28.1	28.1	28.1	79	22.4	0	0	---	0.00	29.926 
01:15	27.8	27.8	27.8	79	22.2	0	0	---	0.00	29.924 
01:20	27.3	27.3	27.3	80	22.0	0	0	---	0.00	29.923 
01:25	27.0	27.0	27.0	81	22.0	0	0	---	0.00	29.923 
01:30	26.6	26.6	26.6	81	21.6	0	0	---	0.00	29.920 
01:35	26.3	26.3	26.3	82	21.6	0	0	---	0.00	29.922 
01:40	26.0	26.0	26.0	82	21.3	0	0	---	0.00	29.922 
01:45	25.7	25.7	25.7	82	21.0	0	0	---	0.00	29.921 
01:50	25.4	25.4	25.4	83	21.0	0	0	---	0.00	29.918 
01:55	25.1	25.1	25.1	83	20.7	0	0	---	0.00	29.914 
02:00	24.8	24.8	24.8	83	20.4	0	0	---	0.00	29.913 
02:05	24.7	24.7	24.7	84	20.6	0	0	---	0.00	29.911 
02:10	24.4	24.4	24.4	84	20.3	0	0	---	0.00	29.912 
02:15	24.1	24.1	24.1	84	20.0	0	0	---	0.00	29.913 
02:20	23.9	23.9	23.9	84	19.8	0	0	---	0.00	29.912 
02:25	23.6	23.6	23.6	85	19.8	0	0	---	0.00	29.912 
02:30	23.5	23.5	23.5	85	19.7	0	0	---	0.00	29.912 
02:35	23.2	23.2	23.2	85	19.4	0	0	---	0.00	29.914 
02:40	23.0	23.0	23.0	85	19.2	0	0	---	0.00	29.913 
02:45	22.9	22.9	22.9	85	19.1	0	0	---	0.00	29.914 
02:50	22.5	22.5	22.5	85	18.7	0	0	---	0.00	29.914 
02:55	22.4	22.4	22.4	85	18.6	0	0	---	0.00	29.916 
03:00	22.1	22.1	22.1	85	18.3	0	0	---	0.00	29.917 
03:05	21.9	21.9	21.9	85	18.1	0	0	---	0.00	29.918 
03:10	21.8	21.8	21.8	86	18.3	0	0	---	0.00	29.920 
03:15	21.4	21.4	21.4	86	17.9	0	0	---	0.00	29.918 
03:20	21.3	21.3	21.3	86	17.8	0	0	---	0.00	29.919 
03:25	21.3	21.3	21.3	86	17.8	0	0	---	0.00	29.918 
03:30	21.1	21.1	21.1	86	17.6	0	0	---	0.00	29.917 
03:35	21.1	21.1	21.1	87	17.8	0	0	---	0.00	29.917 
03:40	21.0	21.0	21.0	87	17.8	0	0	---	0.00	29.915 
03:45	21.0	21.0	21.0	87	17.8	0	0	---	0.00	29.914 
03:50	21.0	21.0	21.0	88	18.0	0	0	---	0.00	29.914 
03:55	21.0	21.0	21.0	88	18.0	0	0	---	0.00	29.912 
04:00	20.8	20.8	20.8	88	17.8	0	0	---	0.00	29.912 
04:05	20.8	20.8	20.8	88	17.8	0	0	---	0.00	29.913 
04:10	20.6	20.6	20.6	88	17.6	0	0	---	0.00	29.913 
04:15	20.5	20.5	20.5	88	17.5	0	0	---	0.00	29.912 
04:20	20.5	20.5	20.5	88	17.5	0	0	---	0.00	29.913 
04:25	20.3	20.3	20.3	88	17.3	0	0	---	0.00	29.914 
04:30	20.2	20.2	20.2	88	17.2	0	0	---	0.00	29.912 
04:35	20.2	20.2	20.2	88	17.2	0	0	---	0.00	29.911 
04:40	20.0	20.0	20.0	88	17.0	0	0	---	0.00	29.907 
04:45	19.9	19.9	19.9	89	17.2	0	0	---	0.00	29.907 
04:50	19.7	19.7	19.7	89	17.0	0	0	---	0.00	29.907 
04:55	19.7	19.7	19.7	89	17.0	0	0	---	0.00	29.909 
05:00	19.5	19.5	19.5	89	16.8	0	0	---	0.00	29.905 
05:05	19.4	19.4	19.4	89	16.7	0	0	---	0.00	29.911 
05:10	19.2	19.2	19.2	89	16.5	0	0	---	0.00	29.914 
05:15	19.1	19.1	19.1	89	16.4	0	0	---	0.00	29.910 
05:20	18.9	18.9	18.9	89	16.2	0	0	---	0.00	29.910 
05:25	18.8	18.8	18.8	89	16.1	0	0	---	0.00	29.912 
05:30	18.6	18.6	18.6	89	15.9	0	0	---	0.00	29.911 
05:35	18.6	18.6	18.6	89	15.9	0	0	---	0.00	29.909 
05:40	18.4	18.4	18.4	89	15.7	0	0	---	0.00	29.908 
05:45	18.3	18.3	18.3	89	15.6	0	0	---	0.00	29.908 
05:50	18.3	18.3	18.3	89	15.6	0	0	---	0.00	29.908 
05:55	18.1	18.1	18.1	89	15.4	0	0	---	0.00	29.911 
06:00	18.0	18.0	18.0	89	15.3	0	0	---	0.00	29.911 
06:05	18.0	18.0	18.0	89	15.3	0	0	---	0.00	29.910 
06:10	18.0	18.0	18.0	89	15.3	0	0	---	0.00	29.911 
06:15	18.0	18.0	18.0	89	15.3	0	0	---	0.00	29.914 
06:20	18.0	18.0	18.0	89	15.3	0	0	---	0.00	29.916 
06:25	18.0	18.0	18.0	89	15.3	0	0	---	0.00	29.919 
06:30	17.8	17.8	17.8	89	15.1	0	0	---	0.00	29.917 
06:35	17.8	17.8	17.8	89	15.1	0	0	---	0.00	29.918 
06:40	17.8	17.8	17.8	89	15.1	0	0	---	0.00	29.918 
06:45	17.8	17.8	17.8	89	15.1	0	0	---	0.00	29.918 
06:50	17.7	17.7	17.7	89	15.0	0	0	---	0.00	29.918 
06:55	17.5	17.5	17.5	89	14.8	0	0	---	0.00	29.919 
07:00	17.5	17.5	17.5	89	14.8	0	0	---	0.00	29.918 
07:05	17.5	17.5	17.5	89	14.8	0	0	---	0.00	29.919 
07:10	17.7	17.7	17.7	90	15.3	0	0	---	0.00	29.918 
07:15	17.7	17.7	17.7	90	15.3	0	0	---	0.00	29.920 
07:20	17.7	17.7	17.7	90	15.3	0	0	---	0.00	29.921 
07:25	17.7	17.7	17.7	90	15.3	0	0	---	0.00	29.921 
07:30	17.7	17.7	17.7	90	15.3	0	0	---	0.00	29.916 
07:35	17.5	17.5	17.5	90	15.1	0	0	---	0.00	29.917 
07:40	17.5	17.5	17.5	90	15.1	0	0	---	0.00	29.920 
07:45	17.3	17.3	17.3	90	14.9	0	0	---	0.00	29.924 
07:50	17.5	17.5	17.5	90	15.1	0	0	---	0.00	29.922 
07:55	17.5	17.5	17.5	90	15.1	0	0	---	0.00	29.923 
08:00	17.7	17.7	17.7	90	15.3	0	0	---	0.00	29.924 
08:05	17.7	17.7	17.7	90	15.3	0	0	---	0.00	29.925 
08:10	17.7	17.7	17.7	90	15.3	0	0	---	0.00	29.924 
08:15	17.8	17.8	17.8	90	15.4	0	0	---	0.00	29.922 
08:20	17.8	17.8	17.8	90	15.4	0	0	---	0.00	29.922 
08:25	18.0	18.0	18.0	90	15.6	0	0	---	0.00	29.922 
08:30	18.3	18.3	18.3	91	16.1	0	0	---	0.00	29.922 
08:35	18.8	18.8	18.8	91	16.6	0	0	---	0.00	29.922 
08:40	19.1	19.1	19.1	91	16.9	0	0	---	0.00	29.924 
08:45	19.5	19.5	19.5	91	17.3	0	0	---	0.00	29.924 
08:50	20.0	20.0	20.0	91	17.8	0	0	---	0.00	29.924 
08:55	20.5	20.5	20.5	91	18.3	0	0	---	0.00	29.925 
09:00	21.1	21.1	21.1	92	19.1	0	0	---	0.00	29.923 
09:05	21.9	21.9	21.9	92	19.9	0	0	---	0.00	29.921 
09:10	22.7	22.7	22.7	93	21.0	0	0	---	0.00	29.920 
09:15	23.9	23.9	23.9	93	22.2	0	0	---	0.00	29.919 
09:20	25.1	25.1	25.1	93	23.4	0	0	---	0.00	29.919 
09:25	26.0	26.0	26.0	94	24.5	0	0	---	0.00	29.918 
09:30	27.0	27.0	27.0	94	25.5	0	1	248	0.00	29.917 
09:35	27.9	27.9	27.9	94	26.4	0	1	248	0.00	29.913 
09:40	28.4	28.4	28.4	93	26.6	0	0	---	0.00	29.911 
09:45	28.8	28.8	28.8	92	26.8	0	1	248	0.00	29.911 
09:50	29.3	29.3	29.3	91	27.0	0	1	248	0.00	29.910 
09:55	29.8	29.8	29.8	90	27.2	0	1	248	0.00	29.908 
10:00	30.6	30.6	30.6	88	27.5	0	2	248	0.00	29.906 
10:05	31.2	31.2	31.2	87	27.8	0	1	248	0.00	29.907 
10:10	31.9	31.9	31.9	84	27.6	0	1	248	0.00	29.909 
10:15	32.5	32.5	32.5	82	27.6	0	1	248	0.00	29.908 
10:20	33.1	33.1	33.1	81	27.9	0	2	248	0.00	29.910 
10:25	33.5	33.5	33.5	80	28.0	0	1	248	0.00	29.910 
10:30	34.1	34.1	34.1	79	28.3	0	1	248	0.00	29.910 
10:35	34.6	34.6	34.6	77	28.1	0	2	248	0.00	29.910 
10:40	35.0	35.0	35.0	74	27.6	0	1	248	0.00	29.907 
10:45	35.5	35.5	35.5	73	27.7	1	2	248	0.00	29.903 
10:50	35.9	35.9	35.9	72	27.8	0	1	248	0.00	29.904 
10:55	36.2	36.2	36.2	71	27.7	0	1	248	0.00	29.904 
11:00	36.5	36.5	36.5	69	27.3	0	2	248	0.00	29.897 
11:05	36.6	36.6	36.6	69	27.4	0	1	248	0.00	29.895 
11:10	36.8	36.8	36.8	69	27.6	0	1	248	0.00	29.896 
11:15	36.9	36.9	36.9	68	27.3	0	1	248	0.00	29.897 
11:20	37.2	37.2	37.2	69	28.0	0	3	248	0.00	29.896 
11:25	37.6	37.6	37.6	67	27.7	1	2	90	0.00	29.894 
11:30	38.0	38.0	38.0	66	27.7	0	2	90	0.00	29.892 
11:35	38.3	38.3	38.3	66	28.0	1	3	112	0.00	29.889 
11:40	38.6	38.6	38.6	64	27.5	1	3	112	0.00	29.883 
11:45	38.9	38.9	38.9	64	27.8	0	2	112	0.00	29.882 
11:50	39.2	39.2	39.2	63	27.7	1	2	135	0.00	29.879 
11:55	39.5	39.5	39.5	62	27.6	0	2	135	0.00	29.877 
12:00	39.8	39.8	39.8	60	27.1	0	1	135	0.00	29.873 
12:05	40.1	40.1	40.1	58	26.5	0	2	135	0.00	29.872 
12:10	40.2	40.2	40.2	55	25.3	1	4	135	0.00	29.867 
12:15	40.3	40.3	40.3	54	25.0	1	4	248	0.00	29.863 
12:20	40.6	40.6	40.6	54	25.3	1	3	248	0.00	29.860 
12:25	41.1	41.1	41.1	55	26.2	1	3	112	0.00	29.860 
12:30	41.3	41.3	41.3	54	25.9	1	3	248	0.00	29.859 
12:35	41.6	41.6	41.6	53	25.8	0	3	158	0.00	29.859 
12:40	41.6	41.6	41.6	53	25.8	0	2	270	0.00	29.858 
12:45	41.8	41.8	41.8	52	25.5	1	5	90	0.00	29.857 
12:50	41.8	41.8	41.8	51	25.0	0	2	45	0.00	29.856 
12:55	42.1	42.1	42.1	53	26.2	1	3	45	0.00	29.855 
13:00	42.3	42.3	42.3	52	25.9	1	4	248	0.00	29.851 
13:05	42.5	42.5	42.5	51	25.7	1	4	225	0.00	29.847 
13:10	42.6	42.6	42.6	50	25.3	1	3	112	0.00	29.845 
13:15	42.6	42.6	42.6	50	25.3	1	4	112	0.00	29.839 
13:20	42.6	42.6	42.6	52	26.2	1	3	112	0.00	29.840 
13:25	42.8	42.8	42.8	49	25.0	1	4	248	0.00	29.834 
13:30	42.8	42.8	42.8	48	24.5	0	1	135	0.00	29.830 
13:35	42.8	42.8	42.8	47	24.0	1	2	248	0.00	29.830 
13:40	42.8	42.8	42.8	47	24.0	0	1	248	0.00	29.829 
13:45	43.1	43.1	43.1	49	25.3	0	2	68	0.00	29.826 
13:50	43.1	43.1	43.1	45	23.2	1	3	112	0.00	29.823 
13:55	43.2	43.2	43.2	46	23.8	0	3	90	0.00	29.822 
14:00	43.2	43.2	43.2	47	24.3	0	1	90	0.00	29.820 
14:05	43.2	43.2	43.2	45	23.3	0	2	180	0.00	29.821 
14:10	43.1	43.1	43.1	43	22.1	1	3	135	0.00	29.818 
14:15	43.1	43.1	43.1	43	22.1	1	2	135	0.00	29.817 
14:20	43.1	43.1	43.1	43	22.1	0	3	158	0.00	29.817 
14:25	43.5	43.5	43.5	42	21.9	1	2	248	0.00	29.818 
14:30	43.6	43.6	43.6	43	22.6	0	2	248	0.00	29.814 
14:35	43.8	43.8	43.8	42	22.2	0	2	248	0.00	29.811 
14:40	43.9	43.9	43.9	44	23.4	0	2	248	0.00	29.806 
14:45	44.2	44.2	44.2	42	22.6	0	1	248	0.00	29.802 
14:50	44.3	44.3	44.3	39	20.9	1	4	248	0.00	29.801 
14:55	44.5	44.5	44.5	41	22.3	0	2	248	0.00	29.801 
15:00	44.3	44.3	44.3	39	20.9	1	3	225	0.00	29.801 
15:05	44.2	44.2	44.2	40	21.4	0	1	225	0.00	29.802 
15:10	43.9	43.9	43.9	39	20.6	0	2	225	0.00	29.802 
15:15	43.9	43.9	43.9	40	21.2	0	1	225	0.00	29.801 
15:20	44.1	44.1	44.1	38	20.1	0	2	225	0.00	29.801 
15:25	44.1	44.1	44.1	38	20.1	0	1	225	0.00	29.801 
15:30	44.1	44.1	44.1	41	21.9	0	2	225	0.00	29.796 
15:35	44.3	44.3	44.3	39	20.9	0	1	180	0.00	29.794 
15:40	44.3	44.3	44.3	39	20.9	0	2	135	0.00	29.793 
15:45	44.3	44.3	44.3	39	20.9	0	2	135	0.00	29.797 
15:50	44.3	44.3	44.3	39	20.9	0	1	135	0.00	29.798 
15:55	44.3	44.3	44.3	40	21.5	0	2	135	0.00	29.797 
16:00	44.2	44.2	44.2	39	20.8	0	1	135	0.00	29.795 
16:05	43.9	43.9	43.9	40	21.2	0	1	135	0.00	29.794 
16:10	43.8	43.8	43.8	38	19.9	0	1	135	0.00	29.789 
16:15	43.6	43.6	43.6	39	20.3	0	0	---	0.00	29.788 
16:20	43.5	43.5	43.5	39	20.2	0	1	135	0.00	29.787 
16:25	43.3	43.3	43.3	38	19.4	0	1	135	0.00	29.789 
16:30	43.1	43.1	43.1	38	19.2	0	1	135	0.00	29.788 
16:35	42.8	42.8	42.8	39	19.6	0	1	135	0.00	29.789 
16:40	42.5	42.5	42.5	39	19.3	0	0	---	0.00	29.789 
16:45	42.2	42.2	42.2	40	19.6	0	1	135	0.00	29.790 
16:50	41.9	41.9	41.9	41	19.9	0	0	---	0.00	29.791 
16:55	41.5	41.5	41.5	42	20.1	0	0	---	0.00	29.789 
17:00	40.9	40.9	40.9	44	20.7	0	0	---	0.00	29.788 
17:05	40.3	40.3	40.3	45	20.7	0	0	---	0.00	29.790 
17:10	39.8	39.8	39.8	45	20.2	0	0	---	0.00	29.788 
17:15	39.2	39.2	39.2	46	20.2	0	0	---	0.00	29.784 
17:20	38.6	38.6	38.6	46	19.6	0	0	---	0.00	29.781 
17:25	38.0	38.0	38.0	48	20.1	0	0	---	0.00	29.779 
17:30	37.5	37.5	37.5	49	20.1	0	0	---	0.00	29.778 
17:35	37.0	37.0	37.0	50	20.1	0	0	---	0.00	29.780 
17:40	36.5	36.5	36.5	53	21.0	0	0	---	0.00	29.780 
17:45	36.0	36.0	36.0	54	21.0	0	0	---	0.00	29.779 
17:50	35.5	35.5	35.5	55	21.0	0	0	---	0.00	29.779 
17:55	35.0	35.0	35.0	56	20.9	0	0	---	0.00	29.778 
18:00	34.4	34.4	34.4	57	20.8	0	0	---	0.00	29.778 
18:05	34.0	34.0	34.0	57	20.4	0	0	---	0.00	29.776 
18:10	33.4	33.4	33.4	58	20.2	0	0	---	0.00	29.775 
18:15	32.9	32.9	32.9	59	20.2	0	0	---	0.00	29.772 
18:20	32.5	32.5	32.5	60	20.2	0	0	---	0.00	29.770 
18:25	32.1	32.1	32.1	61	20.2	0	0	---	0.00	29.769 
18:30	31.6	31.6	31.6	61	19.7	0	0	---	0.00	29.770 
18:35	31.2	31.2	31.2	62	19.7	0	0	---	0.00	29.771 
18:40	30.7	30.7	30.7	64	20.0	0	0	---	0.00	29.770 
18:45	30.4	30.4	30.4	65	20.1	0	0	---	0.00	29.771 
18:50	30.3	30.3	30.3	66	20.3	0	0	---	0.00	29.774 
18:55	30.1	30.1	30.1	67	20.5	0	0	---	0.00	29.773 
19:00	29.8	29.8	29.8	67	20.2	0	0	---	0.00	29.779 
19:05	29.7	29.7	29.7	68	20.5	0	0	---	0.00	29.778 
19:10	29.4	29.4	29.4	68	20.2	0	0	---	0.00	29.773 
19:15	29.3	29.3	29.3	69	20.4	0	0	---	0.00	29.775 
19:20	29.1	29.1	29.1	69	20.2	0	0	---	0.00	29.776 
19:25	29.0	29.0	29.0	69	20.1	0	0	---	0.00	29.775 
19:30	28.7	28.7	28.7	70	20.2	0	0	---	0.00	29.774 
19:35	28.4	28.4	28.4	70	19.9	0	0	---	0.00	29.774 
19:40	28.1	28.1	28.1	70	19.6	0	0	---	0.00	29.774 
19:45	27.8	27.8	27.8	71	19.6	0	0	---	0.00	29.774 
19:50	27.5	27.5	27.5	73	20.0	0	0	---	0.00	29.775 
19:55	27.3	27.3	27.3	74	20.1	0	0	---	0.00	29.775 
20:00	27.2	27.2	27.2	74	20.0	0	0	---	0.00	29.776 
20:05	27.2	27.2	27.2	74	20.0	0	0	---	0.00	29.770 
20:10	27.0	27.0	27.0	75	20.2	0	0	---	0.00	29.769 
20:15	27.0	27.0	27.0	75	20.2	0	0	---	0.00	29.766 
20:20	26.9	26.9	26.9	75	20.1	0	0	---	0.00	29.766 
20:25	26.9	26.9	26.9	76	20.4	0	0	---	0.00	29.766 
20:30	26.9	26.9	26.9	76	20.4	0	0	---	0.00	29.762 
20:35	26.9	26.9	26.9	76	20.4	0	0	---	0.00	29.759 
20:40	27.0	27.0	27.0	76	20.5	0	0	---	0.00	29.756 
20:45	27.2	27.2	27.2	76	20.7	0	0	---	0.00	29.753 
20:50	27.3	27.3	27.3	77	21.1	0	0	---	0.00	29.749 
20:55	27.8	27.8	27.8	77	21.5	0	1	135	0.00	29.745 
21:00	28.5	28.5	28.5	76	21.9	0	1	135	0.00	29.739 
21:05	29.4	29.4	29.4	73	21.8	1	3	90	0.00	29.727 
21:10	30.1	30.1	30.1	70	21.5	1	2	90	0.00	29.725 
21:15	30.7	30.7	30.7	69	21.8	0	2	90	0.00	29.719 
21:20	31.0	31.0	31.0	69	22.0	0	2	90	0.00	29.720 
21:25	31.2	31.2	31.2	68	21.9	0	1	90	0.00	29.719 
21:30	31.3	31.3	31.3	68	22.0	0	1	90	0.00	29.714 
21:35	31.3	31.3	31.3	68	22.0	0	2	90	0.00	29.713 
21:40	31.3	31.3	31.3	68	22.0	0	1	90	0.00	29.714 
21:45	31.3	31.3	31.3	67	21.6	0	0	---	0.00	29.717 
21:50	31.3	31.3	31.3	68	22.0	0	0	---	0.00	29.714 
21:55	31.0	31.0	31.0	68	21.7	0	0	---	0.00	29.711 
22:00	30.9	30.9	30.9	68	21.6	0	0	---	0.00	29.714 
22:05	30.7	30.7	30.7	69	21.8	0	0	---	0.00	29.710 
22:10	30.6	30.6	30.6	69	21.7	0	0	---	0.00	29.708 
22:15	30.4	30.4	30.4	69	21.5	0	0	---	0.00	29.709 
22:20	30.3	30.3	30.3	70	21.7	0	0	---	0.00	29.713 
22:25	30.3	30.3	30.3	70	21.7	0	0	---	0.00	29.712 
22:30	30.1	30.1	30.1	71	21.9	0	0	---	0.00	29.709 
22:35	30.1	30.1	30.1	71	21.9	0	0	---	0.00	29.707 
22:40	30.1	30.1	30.1	71	21.9	0	0	---	0.00	29.706 
22:45	30.3	30.3	30.3	71	22.0	0	1	90	0.00	29.701 
22:50	30.7	30.7	30.7	70	22.1	0	2	90	0.00	29.695 
22:55	31.0	31.0	31.0	70	22.4	0	2	90	0.00	29.689 
23:00	31.2	31.2	31.2	69	22.2	0	2	90	0.00	29.685 
23:05	31.5	31.5	31.5	69	22.5	1	3	90	0.00	29.682 
23:10	31.5	31.5	31.5	69	22.5	0	2	90	0.00	29.679 
23:15	31.5	31.5	31.5	69	22.5	1	2	90	0.00	29.675 
23:20	31.5	31.5	31.5	69	22.5	0	1	90	0.00	29.671 
23:25	31.5	31.5	31.5	70	22.9	0	1	90	0.00	29.669 
23:30	31.3	31.3	31.3	70	22.7	1	3	90	0.00	29.669 
23:35	31.3	31.3	31.3	71	23.0	1	3	90	0.00	29.666 
23:40	31.3	31.3	31.3	71	23.0	1	4	90	0.00	29.663 
23:45	31.3	31.3	31.3	71	23.0	1	2	90	0.00	29.659 
23:50	31.3	31.3	31.3	71	23.0	1	2	90	0.00	29.656 
23:55	31.3	31.3	31.3	71	23.0	1	4	90	0.00	29.654 

CoCoRaHS
IN-AL-39
A2 Web Hosting
Creative Commons License
GoDaddy
search engine by freefind advanced

loaded 2018-11-14 03:53:28 • last modified 2010-11-18 10:43:29
Privacy PolicyDisclaimer
• wx.awcolley.com is powered by PmWiki v.2002016 •
• all content (unless otherwise noted) © 2018 A W Colley